Time;durP1;ratioP1;P1;durP2;ratioP2;P2;SDS_P1;SDS_P2;PMS_P1;PMS_P2;Temp;Humidity;BMP_temperature;BMP_pressure;BME280_temperature;BME280_humidity;BME280_pressure;Samples;Min_cycle;Max_cycle;Signal;HPM_P1;HPM_P2
2024/01/13 00:00:21;;;;;;;6.78;4.28;;;4.40;99.90;;;;;;5027086;28;20164;-44
2024/01/13 00:02:46;;;;;;;9.15;4.90;;;4.40;99.90;;;;;;5027376;28;20085;-50
2024/01/13 00:05:12;;;;;;;7.78;5.05;;;4.40;99.90;;;;;;5028019;28;20493;-44
2024/01/13 00:07:38;;;;;;;7.97;5.30;;;4.50;99.90;;;;;;5027946;28;20064;-43
2024/01/13 00:10:04;;;;;;;7.53;4.20;;;4.50;99.90;;;;;;5027757;28;20034;-44
2024/01/13 00:12:30;;;;;;;7.30;3.97;;;4.50;99.90;;;;;;5028246;28;20026;-52
2024/01/13 00:14:56;;;;;;;5.05;3.85;;;4.40;99.90;;;;;;5028414;28;20053;-47
2024/01/13 00:17:21;;;;;;;9.07;5.20;;;4.40;99.90;;;;;;5028174;28;20109;-45
2024/01/13 00:19:47;;;;;;;9.13;5.75;;;4.40;99.90;;;;;;5026554;28;20391;-49
2024/01/13 00:22:13;;;;;;;9.10;5.97;;;4.40;99.90;;;;;;5028249;28;20021;-47
2024/01/13 00:24:38;;;;;;;10.30;5.45;;;4.40;99.90;;;;;;5033282;28;20033;-54
2024/01/13 00:27:04;;;;;;;8.30;5.90;;;4.30;99.90;;;;;;5028792;28;20018;-49
2024/01/13 00:29:30;;;;;;;10.10;5.60;;;4.30;99.90;;;;;;5029024;28;20060;-51
2024/01/13 00:31:57;;;;;;;9.20;5.90;;;4.30;99.90;;;;;;5028895;28;20395;-43
2024/01/13 00:34:23;;;;;;;9.85;5.90;;;4.30;99.90;;;;;;5022934;28;20033;-47
2024/01/13 00:36:49;;;;;;;12.98;6.43;;;4.20;99.90;;;;;;5029320;28;20677;-52
2024/01/13 00:39:14;;;;;;;11.05;5.97;;;4.20;99.90;;;;;;5026559;28;20030;-53
2024/01/13 00:41:40;;;;;;;8.50;5.15;;;4.20;99.90;;;;;;5028842;28;20037;-46
2024/01/13 00:44:06;;;;;;;8.00;5.25;;;4.10;99.90;;;;;;5029361;28;20025;-51
2024/01/13 00:46:31;;;;;;;8.30;5.80;;;4.10;99.90;;;;;;5029166;28;20508;-54
2024/01/13 00:48:57;;;;;;;10.35;5.90;;;4.20;99.90;;;;;;5029036;28;20071;-46
2024/01/13 00:51:22;;;;;;;10.25;5.70;;;4.30;99.90;;;;;;5008308;28;20109;-44
2024/01/13 00:53:48;;;;;;;8.05;5.43;;;4.20;99.90;;;;;;5026198;28;20093;-50
2024/01/13 00:56:14;;;;;;;9.20;5.90;;;4.20;99.90;;;;;;5029051;28;20021;-50
2024/01/13 00:58:39;;;;;;;8.52;5.55;;;4.20;99.90;;;;;;5029060;28;20390;-44
2024/01/13 01:01:05;;;;;;;8.98;5.55;;;4.20;99.90;;;;;;5028802;28;20049;-48
2024/01/13 01:03:31;;;;;;;9.82;6.40;;;4.20;99.90;;;;;;5028949;28;20120;-45
2024/01/13 01:05:58;;;;;;;11.43;5.82;;;4.20;99.90;;;;;;5028952;28;20057;-52
2024/01/13 01:08:23;;;;;;;10.00;6.18;;;4.20;99.90;;;;;;5017821;28;20036;-45
2024/01/13 01:10:49;;;;;;;8.80;5.32;;;4.10;99.90;;;;;;5032031;28;20029;-49
2024/01/13 01:13:15;;;;;;;9.55;5.97;;;4.10;99.90;;;;;;5032466;28;20029;-51
2024/01/13 01:15:41;;;;;;;10.27;5.78;;;4.10;99.90;;;;;;5031897;28;20029;-44
2024/01/13 01:18:06;;;;;;;9.65;6.28;;;4.10;99.90;;;;;;5032549;28;20047;-44
2024/01/13 01:20:32;;;;;;;10.80;6.35;;;4.10;99.90;;;;;;5032515;28;20488;-50
2024/01/13 01:22:58;;;;;;;9.43;6.22;;;4.10;99.90;;;;;;5032198;28;20083;-43
2024/01/13 01:25:23;;;;;;;11.55;6.90;;;4.00;99.90;;;;;;5032135;28;20507;-45
2024/01/13 01:27:49;;;;;;;9.27;5.68;;;4.00;99.90;;;;;;5033479;28;20025;-49
2024/01/13 01:30:15;;;;;;;8.50;5.65;;;4.00;99.90;;;;;;5031945;28;20029;-52
2024/01/13 01:32:40;;;;;;;9.73;6.22;;;4.00;99.90;;;;;;5032310;28;20040;-56
2024/01/13 01:35:06;;;;;;;9.73;5.88;;;4.00;99.90;;;;;;5032264;28;20417;-46
2024/01/13 01:37:33;;;;;;;10.77;6.90;;;4.10;99.90;;;;;;5032067;28;20021;-53
2024/01/13 01:39:58;;;;;;;9.90;6.30;;;4.10;99.90;;;;;;5031952;28;20116;-46
2024/01/13 01:42:24;;;;;;;13.95;7.05;;;4.10;99.90;;;;;;5031685;28;20619;-55
2024/01/13 01:44:50;;;;;;;10.27;6.55;;;4.10;99.90;;;;;;5032354;28;20026;-51
2024/01/13 01:47:19;;;;;;;11.50;6.70;;;4.00;99.90;;;;;;5031490;28;20476;-55
2024/01/13 01:49:45;;;;;;;12.13;6.78;;;4.00;99.90;;;;;;5032079;28;20033;-50
2024/01/13 01:52:12;;;;;;;10.10;6.35;;;4.00;99.90;;;;;;5032026;28;20035;-50
2024/01/13 01:54:38;;;;;;;9.18;5.85;;;4.00;99.90;;;;;;5031937;28;20579;-49
2024/01/13 01:57:05;;;;;;;8.13;5.20;;;4.00;99.90;;;;;;5031491;28;20112;-51
2024/01/13 01:59:31;;;;;;;10.52;6.40;;;3.90;99.90;;;;;;5031367;28;20065;-53
2024/01/13 02:01:58;;;;;;;10.48;5.63;;;3.90;99.90;;;;;;5031330;28;20037;-52
2024/01/13 02:04:24;;;;;;;8.73;5.50;;;3.90;99.90;;;;;;5027224;28;20103;-56
2024/01/13 02:06:50;;;;;;;8.25;5.32;;;3.90;99.90;;;;;;5031977;28;20053;-49
2024/01/13 02:09:16;;;;;;;9.55;5.95;;;3.90;99.90;;;;;;5031921;28;20482;-50
2024/01/13 02:11:42;;;;;;;9.73;5.65;;;3.90;99.90;;;;;;5030230;28;20476;-50
2024/01/13 02:14:08;;;;;;;9.15;5.85;;;3.90;99.90;;;;;;5031026;28;20109;-49
2024/01/13 02:16:33;;;;;;;9.50;6.20;;;3.90;99.90;;;;;;5030948;28;20032;-47
2024/01/13 02:18:59;;;;;;;9.68;6.40;;;3.90;99.90;;;;;;5031505;28;20152;-49
2024/01/13 02:21:25;;;;;;;8.80;5.63;;;3.90;99.90;;;;;;5031079;28;20037;-48
2024/01/13 02:23:50;;;;;;;12.43;6.35;;;3.80;99.90;;;;;;5031322;28;20100;-48
2024/01/13 02:26:16;;;;;;;9.15;6.40;;;3.80;99.90;;;;;;5031244;28;20053;-49
2024/01/13 02:28:42;;;;;;;9.40;6.45;;;3.80;99.90;;;;;;5030913;28;20538;-49
2024/01/13 02:31:07;;;;;;;8.88;6.07;;;3.80;99.90;;;;;;5031037;28;20167;-52
2024/01/13 02:33:33;;;;;;;9.55;5.88;;;3.80;99.90;;;;;;5030737;28;20037;-50
2024/01/13 02:35:58;;;;;;;10.20;6.63;;;3.80;99.90;;;;;;5031168;28;20108;-49
2024/01/13 02:38:24;;;;;;;11.75;7.20;;;3.80;99.90;;;;;;5030831;28;20040;-48
2024/01/13 02:40:50;;;;;;;11.90;6.70;;;3.80;99.90;;;;;;5029547;28;20037;-44
2024/01/13 02:43:15;;;;;;;10.60;6.43;;;3.90;99.90;;;;;;5030795;28;20021;-43
2024/01/13 02:45:41;;;;;;;10.85;6.85;;;3.90;99.90;;;;;;5030558;28;20036;-44
2024/01/13 02:48:14;;;;;;;12.15;7.32;;;3.90;99.90;;;;;;5030905;28;20096;-48
2024/01/13 02:50:39;;;;;;;12.52;7.32;;;3.90;99.90;;;;;;5030934;28;20484;-46
2024/01/13 02:53:05;;;;;;;12.95;7.45;;;3.90;99.90;;;;;;5030966;28;20032;-49
2024/01/13 02:55:31;;;;;;;12.25;8.25;;;3.90;99.90;;;;;;5030277;28;20063;-49
2024/01/13 02:57:56;;;;;;;13.70;7.68;;;3.90;99.90;;;;;;5030795;28;20425;-55
2024/01/13 03:00:22;;;;;;;12.68;7.82;;;4.00;99.90;;;;;;5030536;28;20115;-53
2024/01/13 03:02:47;;;;;;;10.68;7.05;;;3.90;99.90;;;;;;5030011;28;20435;-49
2024/01/13 03:05:13;;;;;;;13.07;7.75;;;4.00;99.90;;;;;;5030395;28;20017;-44
2024/01/13 03:07:39;;;;;;;11.02;6.90;;;4.00;99.90;;;;;;5030593;28;20041;-47
2024/01/13 03:10:05;;;;;;;10.40;6.65;;;3.90;99.90;;;;;;5030271;28;20464;-51
2024/01/13 03:12:31;;;;;;;9.63;6.50;;;3.90;99.90;;;;;;5030328;28;20115;-46
2024/01/13 03:14:57;;;;;;;11.23;6.70;;;3.90;99.90;;;;;;5030482;28;20638;-50
2024/01/13 03:17:22;;;;;;;9.60;6.00;;;3.90;99.90;;;;;;5030208;28;20033;-48
2024/01/13 03:19:48;;;;;;;10.40;6.50;;;3.90;99.90;;;;;;5030052;28;20120;-47
2024/01/13 03:22:14;;;;;;;9.23;6.10;;;3.90;99.90;;;;;;5030385;28;20179;-49
2024/01/13 03:24:39;;;;;;;10.48;6.45;;;4.00;99.90;;;;;;5030424;28;20547;-45
2024/01/13 03:27:05;;;;;;;13.00;7.35;;;3.90;99.90;;;;;;5029610;28;20026;-50
2024/01/13 03:29:30;;;;;;;13.00;7.82;;;3.90;99.90;;;;;;5030217;28;20385;-49
2024/01/13 03:31:56;;;;;;;12.52;7.38;;;3.90;99.90;;;;;;5029239;28;20021;-52
2024/01/13 03:34:22;;;;;;;12.40;7.30;;;3.90;99.90;;;;;;5029854;28;20041;-53
2024/01/13 03:36:47;;;;;;;11.20;6.72;;;3.90;99.90;;;;;;5029725;28;20071;-45
2024/01/13 03:39:13;;;;;;;10.30;6.95;;;3.90;99.90;;;;;;5029888;28;20460;-45
2024/01/13 03:41:39;;;;;;;10.10;7.38;;;3.90;99.90;;;;;;5029508;28;20041;-44
2024/01/13 03:44:04;;;;;;;12.10;7.18;;;3.90;99.90;;;;;;5029528;28;20480;-50
2024/01/13 03:46:30;;;;;;;12.13;7.82;;;3.90;99.90;;;;;;5029668;28;20033;-47
2024/01/13 03:48:56;;;;;;;11.05;7.43;;;3.90;99.90;;;;;;5024886;28;20033;-53
2024/01/13 03:51:21;;;;;;;13.60;7.38;;;3.90;99.90;;;;;;5029471;28;20025;-53
2024/01/13 03:53:47;;;;;;;14.65;7.95;;;3.90;99.90;;;;;;5029559;28;20044;-49
2024/01/13 03:56:12;;;;;;;14.27;7.82;;;3.90;99.90;;;;;;5029583;28;20026;-53
2024/01/13 03:58:39;;;;;;;11.90;6.88;;;3.90;99.90;;;;;;5029753;28;20116;-48
2024/01/13 04:01:05;;;;;;;11.98;7.53;;;3.90;99.90;;;;;;5029402;28;20104;-51
2024/01/13 04:03:31;;;;;;;14.07;7.57;;;3.90;99.90;;;;;;5029553;28;20480;-47
2024/01/13 04:05:58;;;;;;;11.52;7.18;;;3.80;99.90;;;;;;5029380;28;20025;-44
2024/01/13 04:08:24;;;;;;;11.95;7.15;;;3.80;99.90;;;;;;5028140;28;20057;-50
2024/01/13 04:10:50;;;;;;;10.57;6.28;;;3.80;99.90;;;;;;5029306;28;20116;-49
2024/01/13 04:13:17;;;;;;;10.55;6.65;;;3.80;99.90;;;;;;5029445;28;20112;-46
2024/01/13 04:15:42;;;;;;;12.40;7.63;;;3.80;99.90;;;;;;5029254;28;20370;-56
2024/01/13 04:18:08;;;;;;;14.32;6.97;;;3.70;99.90;;;;;;5029419;28;20156;-51
2024/01/13 04:20:34;;;;;;;11.32;7.15;;;3.70;99.90;;;;;;5029064;28;20052;-52
2024/01/13 04:23:00;;;;;;;9.88;6.60;;;3.70;99.90;;;;;;5029314;28;20349;-45
2024/01/13 04:25:26;;;;;;;10.70;6.00;;;3.70;99.90;;;;;;5029013;28;20041;-52
2024/01/13 04:27:53;;;;;;;8.88;5.90;;;3.70;99.90;;;;;;5028141;28;20030;-50
2024/01/13 04:30:19;;;;;;;10.25;6.15;;;3.70;99.90;;;;;;5029045;28;20071;-54
2024/01/13 04:32:44;;;;;;;10.07;6.18;;;3.70;99.90;;;;;;5029463;28;20037;-51
2024/01/13 04:35:11;;;;;;;12.30;6.93;;;3.60;99.90;;;;;;5029132;28;20021;-44
2024/01/13 04:37:37;;;;;;;11.98;6.78;;;3.60;99.90;;;;;;5028957;28;20034;-46
2024/01/13 04:40:03;;;;;;;11.48;7.32;;;3.60;99.90;;;;;;5028889;28;20037;-53
2024/01/13 04:42:31;;;;;;;13.30;7.38;;;3.60;99.90;;;;;;5029705;28;20041;-46
2024/01/13 04:44:57;;;;;;;11.30;7.40;;;3.60;99.90;;;;;;5033097;28;20108;-50
2024/01/13 04:47:24;;;;;;;14.88;7.75;;;3.70;99.90;;;;;;5032951;28;20494;-47
2024/01/13 04:49:50;;;;;;;15.57;8.80;;;3.60;99.90;;;;;;5033364;28;20457;-49
2024/01/13 04:52:15;;;;;;;12.27;7.45;;;3.60;99.90;;;;;;5036971;28;20108;-48
2024/01/13 04:54:41;;;;;;;11.88;7.45;;;3.60;99.90;;;;;;5033059;28;20488;-48
2024/01/13 04:57:06;;;;;;;15.35;8.45;;;3.50;99.90;;;;;;5032397;28;20036;-51
2024/01/13 04:59:32;;;;;;;15.55;8.20;;;3.50;99.90;;;;;;5032293;28;20131;-50
2024/01/13 05:01:58;;;;;;;11.95;7.55;;;3.50;99.90;;;;;;5030519;28;20037;-45
2024/01/13 05:04:23;;;;;;;15.63;8.20;;;3.50;99.90;;;;;;5032579;28;20026;-47
2024/01/13 05:06:49;;;;;;;12.18;7.53;;;3.40;99.90;;;;;;5032611;28;20113;-47
2024/01/13 05:09:15;;;;;;;16.27;7.65;;;3.30;99.90;;;;;;5032716;28;20064;-50
2024/01/13 05:11:41;;;;;;;11.40;7.90;;;3.30;99.90;;;;;;5032506;28;20461;-45
2024/01/13 05:14:07;;;;;;;12.77;7.07;;;3.30;99.90;;;;;;5032257;28;20088;-50
2024/01/13 05:16:32;;;;;;;13.18;7.30;;;3.30;99.90;;;;;;5027555;28;20416;-52
2024/01/13 05:18:58;;;;;;;14.52;8.10;;;3.30;99.90;;;;;;5032761;28;20040;-47
2024/01/13 05:21:23;;;;;;;12.35;7.63;;;3.30;99.90;;;;;;5032196;28;20029;-55
2024/01/13 05:23:49;;;;;;;12.02;7.65;;;3.30;99.90;;;;;;5032227;28;20457;-44
2024/01/13 05:26:15;;;;;;;12.70;7.45;;;3.30;99.90;;;;;;5031848;28;20095;-51
2024/01/13 05:28:40;;;;;;;11.48;7.65;;;3.30;99.90;;;;;;5032115;28;20477;-46
2024/01/13 05:31:06;;;;;;;12.38;7.35;;;3.30;99.90;;;;;;5032413;28;20033;-49
2024/01/13 05:33:32;;;;;;;12.52;7.88;;;3.30;99.90;;;;;;5031868;28;20125;-52
2024/01/13 05:35:57;;;;;;;12.40;7.43;;;3.30;99.90;;;;;;5030963;28;20125;-54
2024/01/13 05:38:23;;;;;;;11.80;7.53;;;3.30;99.90;;;;;;5031910;28;20540;-51
2024/01/13 05:40:49;;;;;;;11.18;7.47;;;3.30;99.90;;;;;;5031792;28;20438;-45
2024/01/13 05:43:14;;;;;;;12.13;7.80;;;3.40;99.90;;;;;;5032950;28;20094;-44
2024/01/13 05:45:40;;;;;;;11.45;6.82;;;3.40;99.90;;;;;;5029911;28;20064;-44
2024/01/13 05:48:06;;;;;;;13.57;8.20;;;3.40;99.90;;;;;;5032065;28;20029;-52
2024/01/13 05:50:32;;;;;;;12.00;7.55;;;3.40;99.90;;;;;;5031639;28;20032;-48
2024/01/13 05:52:58;;;;;;;11.57;7.80;;;3.40;99.90;;;;;;5031526;28;20030;-48
2024/01/13 05:55:23;;;;;;;14.63;7.85;;;3.40;99.90;;;;;;5031285;28;20041;-52
2024/01/13 05:57:49;;;;;;;11.85;7.25;;;3.50;99.90;;;;;;5031942;28;20049;-56
2024/01/13 06:00:15;;;;;;;11.38;7.10;;;3.50;99.90;;;;;;5030803;28;20164;-49
2024/01/13 06:02:41;;;;;;;13.93;8.18;;;3.50;99.90;;;;;;5031817;28;20156;-49
2024/01/13 06:05:06;;;;;;;12.82;7.57;;;3.50;99.90;;;;;;5031572;28;20122;-46
2024/01/13 06:07:32;;;;;;;12.75;7.13;;;3.50;99.90;;;;;;5031742;28;20061;-52
2024/01/13 06:09:58;;;;;;;11.00;6.32;;;3.50;99.90;;;;;;5031595;28;20079;-51
2024/01/13 06:12:24;;;;;;;13.65;7.15;;;3.50;99.90;;;;;;5031223;28;20492;-47
2024/01/13 06:14:49;;;;;;;12.10;7.75;;;3.50;99.90;;;;;;5031423;28;20018;-49
2024/01/13 06:17:15;;;;;;;13.82;7.50;;;3.60;99.90;;;;;;5031137;28;20035;-49
2024/01/13 06:19:41;;;;;;;16.27;8.38;;;3.60;99.90;;;;;;5031502;28;20022;-51
2024/01/13 06:22:07;;;;;;;12.23;7.30;;;3.60;99.90;;;;;;5031237;28;20105;-47
2024/01/13 06:24:33;;;;;;;14.57;7.68;;;3.60;99.90;;;;;;5031282;28;20018;-44
2024/01/13 06:26:59;;;;;;;13.45;7.45;;;3.50;99.90;;;;;;5030582;28;20029;-49
2024/01/13 06:29:25;;;;;;;12.60;7.03;;;3.50;99.90;;;;;;5031116;28;20029;-49
2024/01/13 06:31:51;;;;;;;11.10;7.18;;;3.50;99.90;;;;;;5031067;28;20490;-50
2024/01/13 06:34:16;;;;;;;11.55;6.85;;;3.50;99.90;;;;;;5031154;28;20029;-51
2024/01/13 06:36:42;;;;;;;13.20;7.63;;;3.50;99.90;;;;;;5031003;28;20032;-45
2024/01/13 06:39:08;;;;;;;14.40;8.10;;;3.50;99.90;;;;;;5030889;28;20037;-58
2024/01/13 06:41:34;;;;;;;14.32;6.90;;;3.50;99.90;;;;;;5030295;28;20378;-46
2024/01/13 06:43:59;;;;;;;16.27;7.85;;;3.50;99.90;;;;;;5029818;28;20333;-45
2024/01/13 06:46:25;;;;;;;12.15;6.68;;;3.50;99.90;;;;;;5031087;28;20536;-54
2024/01/13 06:48:50;;;;;;;12.75;7.00;;;3.50;99.90;;;;;;5030544;28;20580;-46
2024/01/13 06:51:16;;;;;;;14.00;7.95;;;3.50;99.90;;;;;;5030784;28;20033;-57
2024/01/13 06:53:42;;;;;;;14.00;7.57;;;3.40;99.90;;;;;;5030576;28;20420;-54
2024/01/13 06:56:08;;;;;;;14.82;7.93;;;3.40;99.90;;;;;;5030128;28;20033;-53
2024/01/13 06:58:34;;;;;;;15.27;8.48;;;3.40;99.90;;;;;;5030499;28;20112;-53
2024/01/13 07:01:00;;;;;;;13.23;8.02;;;3.40;99.90;;;;;;5029718;28;20491;-53
2024/01/13 07:03:26;;;;;;;15.45;8.20;;;3.40;99.90;;;;;;5030056;28;20120;-43
2024/01/13 07:05:52;;;;;;;14.85;8.77;;;3.40;99.90;;;;;;5029783;28;20033;-53
2024/01/13 07:08:18;;;;;;;14.75;8.95;;;3.30;99.90;;;;;;5030445;28;20052;-56
2024/01/13 07:10:43;;;;;;;14.35;8.70;;;3.30;99.90;;;;;;5029885;28;20029;-53
2024/01/13 07:13:09;;;;;;;16.42;9.60;;;3.30;99.90;;;;;;5030698;28;20041;-49
2024/01/13 07:15:35;;;;;;;15.90;9.18;;;3.30;99.90;;;;;;5030392;28;20033;-53
2024/01/13 07:18:01;;;;;;;19.15;9.80;;;3.20;99.90;;;;;;5022038;28;20389;-45
2024/01/13 07:20:27;;;;;;;14.60;9.23;;;3.20;99.90;;;;;;5026262;28;20069;-48
2024/01/13 07:22:53;;;;;;;17.75;9.52;;;3.20;99.90;;;;;;5022781;28;20056;-53
2024/01/13 07:25:19;;;;;;;15.20;8.35;;;3.20;99.90;;;;;;5028901;28;20395;-52
2024/01/13 07:27:44;;;;;;;18.67;9.65;;;3.20;99.90;;;;;;5030021;28;20504;-45
2024/01/13 07:30:11;;;;;;;18.10;10.30;;;3.20;99.90;;;;;;5029576;28;20092;-53
2024/01/13 07:32:36;;;;;;;14.73;9.40;;;3.20;99.90;;;;;;5029966;28;20064;-44
2024/01/13 07:35:02;;;;;;;20.40;10.02;;;3.20;99.90;;;;;;5029217;28;20049;-42
2024/01/13 07:37:28;;;;;;;15.20;9.23;;;3.20;99.90;;;;;;5029646;28;20034;-44
2024/01/13 07:39:54;;;;;;;15.55;9.23;;;3.20;99.90;;;;;;5022938;28;20028;-43
2024/01/13 07:42:19;;;;;;;16.40;9.77;;;3.20;99.90;;;;;;5023495;28;20034;-43
2024/01/13 07:44:45;;;;;;;16.73;9.82;;;3.20;99.90;;;;;;5029815;28;20051;-45
2024/01/13 07:47:11;;;;;;;17.95;10.40;;;3.20;99.90;;;;;;5028223;28;20033;-51
2024/01/13 07:49:37;;;;;;;14.32;8.90;;;3.10;99.90;;;;;;5029489;28;20491;-53
2024/01/13 07:52:03;;;;;;;15.77;10.10;;;3.20;99.90;;;;;;5028955;28;20054;-51
2024/01/13 07:54:28;;;;;;;15.35;8.93;;;3.10;99.90;;;;;;5029235;28;20033;-45
2024/01/13 07:56:54;;;;;;;16.33;9.50;;;3.10;99.90;;;;;;5028422;28;20132;-44
2024/01/13 07:59:21;;;;;;;16.15;9.70;;;3.10;99.90;;;;;;5028240;28;20032;-45
2024/01/13 08:01:47;;;;;;;16.05;10.05;;;3.10;99.90;;;;;;5028794;28;20044;-53
2024/01/13 08:04:14;;;;;;;14.85;8.93;;;3.10;99.90;;;;;;5026696;28;20022;-46
2024/01/13 08:06:41;;;;;;;14.55;8.77;;;3.00;99.90;;;;;;5028041;28;20400;-45
2024/01/13 08:09:06;;;;;;;13.63;8.43;;;3.00;99.90;;;;;;5028130;28;20024;-46
2024/01/13 08:11:32;;;;;;;14.75;9.02;;;3.00;99.90;;;;;;5029466;28;20392;-48
2024/01/13 08:13:58;;;;;;;15.13;8.68;;;3.00;99.90;;;;;;5028063;28;20463;-47
2024/01/13 08:16:23;;;;;;;14.90;8.70;;;3.00;99.90;;;;;;5030037;28;20021;-45
2024/01/13 08:18:49;;;;;;;18.23;9.73;;;3.00;99.90;;;;;;5028847;28;20134;-45
2024/01/13 08:21:15;;;;;;;16.33;9.75;;;2.90;99.90;;;;;;5032852;28;20322;-44
2024/01/13 08:23:41;;;;;;;17.67;9.93;;;3.00;99.90;;;;;;5033509;28;20400;-44
2024/01/13 08:26:07;;;;;;;17.88;9.48;;;3.00;99.90;;;;;;5033654;28;20071;-45
2024/01/13 08:28:33;;;;;;;16.63;9.40;;;3.00;99.90;;;;;;5033094;28;20433;-45
2024/01/13 08:30:59;;;;;;;13.82;8.82;;;3.00;99.90;;;;;;5033676;28;20056;-47
2024/01/13 08:33:24;;;;;;;15.18;9.77;;;3.00;99.90;;;;;;5033204;28;20477;-45
2024/01/13 08:35:50;;;;;;;16.60;10.00;;;3.00;99.90;;;;;;5033656;28;20163;-47
2024/01/13 08:38:16;;;;;;;20.90;11.20;;;3.00;99.90;;;;;;5033045;28;20013;-45
2024/01/13 08:40:44;;;;;;;17.58;10.02;;;3.10;99.90;;;;;;5033375;28;20072;-46
2024/01/13 08:43:09;;;;;;;17.85;10.10;;;3.10;99.90;;;;;;5033391;28;20026;-45
2024/01/13 08:45:35;;;;;;;18.13;10.52;;;3.10;99.90;;;;;;5033467;28;20104;-46
2024/01/13 08:48:01;;;;;;;16.25;10.25;;;3.20;99.90;;;;;;5033604;28;20284;-52
2024/01/13 08:50:26;;;;;;;18.20;10.43;;;3.20;99.90;;;;;;5033224;28;20458;-42
2024/01/13 08:52:54;;;;;;;18.48;9.32;;;3.20;99.90;;;;;;5033270;28;20029;-47
2024/01/13 08:55:21;;;;;;;19.20;10.07;;;3.20;99.90;;;;;;5033578;28;20464;-47
2024/01/13 08:57:47;;;;;;;14.68;8.45;;;3.20;99.90;;;;;;5033424;28;20025;-48
2024/01/13 09:00:13;;;;;;;18.13;9.13;;;3.20;99.90;;;;;;5032679;28;20116;-45
2024/01/13 09:02:39;;;;;;;17.25;9.65;;;3.20;99.90;;;;;;5032852;28;20124;-45
2024/01/13 09:05:06;;;;;;;16.25;8.13;;;3.20;99.90;;;;;;5032876;28;20029;-42
2024/01/13 09:07:35;;;;;;;15.32;9.30;;;3.20;99.90;;;;;;5032024;28;20080;-42
2024/01/13 09:10:00;;;;;;;16.70;9.75;;;3.30;99.90;;;;;;5033128;28;20445;-44
2024/01/13 09:12:26;;;;;;;14.93;8.82;;;3.30;99.90;;;;;;5032954;28;20120;-43
2024/01/13 09:14:52;;;;;;;17.73;9.30;;;3.30;99.90;;;;;;5025552;28;20421;-43
2024/01/13 09:17:17;;;;;;;14.57;8.32;;;3.30;99.90;;;;;;5025191;28;20037;-44
2024/01/13 09:19:43;;;;;;;13.40;8.00;;;3.30;99.90;;;;;;5031873;28;20017;-45
2024/01/13 09:22:09;;;;;;;12.20;7.65;;;3.30;99.90;;;;;;5031884;28;20048;-44
2024/01/13 09:24:35;;;;;;;12.00;7.68;;;3.20;99.90;;;;;;5029011;28;20657;-45
2024/01/13 09:27:00;;;;;;;17.73;8.07;;;3.10;99.90;;;;;;5030832;28;20025;-44
2024/01/13 09:29:27;;;;;;;15.32;8.40;;;3.10;99.90;;;;;;5031130;28;20386;-44
2024/01/13 09:31:52;;;;;;;15.48;9.60;;;3.10;99.90;;;;;;5030470;28;20104;-44
2024/01/13 09:34:19;;;;;;;17.95;9.02;;;3.10;99.90;;;;;;5032286;28;20118;-45
2024/01/13 09:36:44;;;;;;;15.88;8.68;;;3.20;99.90;;;;;;5031570;28;20017;-44
2024/01/13 09:39:11;;;;;;;17.73;8.27;;;3.20;99.90;;;;;;5031615;28;20078;-44
2024/01/13 09:41:42;;;;;;;13.57;8.48;;;3.30;99.90;;;;;;5031542;28;20029;-44
2024/01/13 09:44:13;;;;;;;16.05;7.63;;;3.30;99.90;;;;;;5031936;28;20440;-44
2024/01/13 09:46:39;;;;;;;13.43;7.75;;;3.30;99.90;;;;;;5031827;28;20044;-44
2024/01/13 09:49:12;;;;;;;16.60;8.63;;;3.20;99.90;;;;;;5030971;28;20389;-44
2024/01/13 09:51:38;;;;;;;14.18;8.00;;;3.10;99.90;;;;;;5031567;28;20561;-44
2024/01/13 09:54:11;;;;;;;16.10;8.95;;;3.10;99.90;;;;;;5026390;28;20379;-47
2024/01/13 09:56:43;;;;;;;14.93;8.43;;;3.10;99.90;;;;;;5024502;28;20033;-44
2024/01/13 09:59:09;;;;;;;14.35;8.50;;;3.10;99.90;;;;;;5030801;28;20029;-47
2024/01/13 10:01:35;;;;;;;17.02;8.98;;;3.10;99.90;;;;;;5037873;28;20040;-45
2024/01/13 10:04:01;;;;;;;14.77;9.07;;;3.10;99.90;;;;;;5033200;28;20056;-44
2024/01/13 10:06:28;;;;;;;18.90;9.85;;;3.20;99.90;;;;;;5031269;28;20041;-44
2024/01/13 10:08:54;;;;;;;18.92;10.35;;;3.30;99.90;;;;;;5029767;28;20384;-45
2024/01/13 10:11:20;;;;;;;18.92;10.02;;;3.40;99.90;;;;;;5029900;28;20099;-44
2024/01/13 10:14:01;;;;;;;17.73;9.82;;;3.50;99.90;;;;;;5023557;28;20032;-44
2024/01/13 10:16:29;;;;;;;15.02;8.70;;;3.60;99.90;;;;;;5031387;28;20030;-53
2024/01/13 10:18:55;;;;;;;14.85;8.32;;;3.50;99.90;;;;;;5031605;28;20034;-46
2024/01/13 10:21:23;;;;;;;15.02;8.45;;;3.60;99.90;;;;;;5029534;28;20041;-44
2024/01/13 10:23:48;;;;;;;15.30;8.75;;;3.60;99.90;;;;;;5032135;28;20094;-44
2024/01/13 10:26:15;;;;;;;17.40;9.30;;;3.60;99.90;;;;;;5030153;28;21442;-47
2024/01/13 10:28:40;;;;;;;16.77;9.93;;;3.60;99.90;;;;;;5026555;28;20029;-44
2024/01/13 10:31:06;;;;;;;17.40;8.07;;;3.60;99.90;;;;;;5030949;28;20055;-44
2024/01/13 10:33:32;;;;;;;15.38;8.45;;;3.60;99.90;;;;;;5029824;28;20084;-45
2024/01/13 10:35:57;;;;;;;17.15;8.68;;;3.50;99.90;;;;;;5031512;28;20037;-44
2024/01/13 10:38:23;;;;;;;15.65;8.85;;;3.50;99.90;;;;;;5031110;28;20064;-48
2024/01/13 10:40:49;;;;;;;16.42;9.07;;;3.50;99.90;;;;;;5030196;28;20033;-47
2024/01/13 10:43:17;;;;;;;14.75;8.82;;;3.60;99.90;;;;;;5031330;28;20091;-46
2024/01/13 10:45:48;;;;;;;18.55;10.23;;;3.70;99.90;;;;;;5031104;28;20040;-44
2024/01/13 10:48:20;;;;;;;14.20;8.52;;;3.70;99.90;;;;;;5031492;28;20100;-44
2024/01/13 10:50:49;;;;;;;14.93;9.05;;;3.80;99.90;;;;;;5029583;28;20029;-44
2024/01/13 10:53:24;;;;;;;17.27;8.85;;;3.90;99.90;;;;;;5026411;28;20451;-47
2024/01/13 10:55:51;;;;;;;13.88;8.43;;;3.90;99.90;;;;;;5030589;28;20503;-45
2024/01/13 10:58:18;;;;;;;15.85;8.40;;;3.90;99.90;;;;;;5027803;28;20358;-46
2024/01/13 11:00:44;;;;;;;17.17;9.50;;;3.90;99.90;;;;;;5030093;28;20132;-45
2024/01/13 11:03:12;;;;;;;15.98;9.40;;;3.90;99.90;;;;;;5031156;28;20049;-48
2024/01/13 11:05:38;;;;;;;16.35;9.00;;;3.90;99.90;;;;;;5029366;28;20083;-47
2024/01/13 11:08:04;;;;;;;16.88;9.70;;;3.80;99.90;;;;;;5028895;28;20776;-45
2024/01/13 11:10:40;;;;;;;16.73;9.65;;;3.80;99.90;;;;;;5028781;28;20022;-50
2024/01/13 11:13:11;;;;;;;17.65;9.57;;;3.80;99.90;;;;;;5029547;28;20044;-47
2024/01/13 11:16:07;;;;;;;18.88;9.70;;;3.90;99.90;;;;;;5030697;28;20033;-50
2024/01/13 11:18:52;;;;;;;16.00;8.95;;;3.90;99.90;;;;;;5026617;28;20037;-46
2024/01/13 11:21:19;;;;;;;15.95;9.20;;;3.90;99.90;;;;;;5030500;28;20034;-56
2024/01/13 11:23:54;;;;;;;17.17;9.35;;;3.90;99.90;;;;;;5030829;28;20026;-45
2024/01/13 11:26:27;;;;;;;17.85;8.85;;;4.00;99.90;;;;;;5030772;28;20036;-52
2024/01/13 11:28:55;;;;;;;18.92;10.48;;;4.00;99.90;;;;;;5030711;28;20020;-47
2024/01/13 11:31:40;;;;;;;16.67;8.93;;;3.90;99.90;;;;;;5030796;28;20472;-45
2024/01/13 11:34:11;;;;;;;20.90;10.90;;;3.90;99.90;;;;;;5018033;28;20079;-53
2024/01/13 11:36:45;;;;;;;20.10;9.77;;;3.90;99.90;;;;;;5030655;28;20026;-45
2024/01/13 11:39:11;;;;;;;15.20;8.88;;;3.90;99.90;;;;;;5017809;28;20021;-47
2024/01/13 11:41:48;;;;;;;15.52;9.05;;;3.90;99.90;;;;;;5030587;28;20114;-45
2024/01/13 11:44:24;;;;;;;22.85;10.55;;;4.00;99.90;;;;;;5017369;28;20160;-49
2024/01/13 11:46:57;;;;;;;17.40;9.05;;;4.00;99.90;;;;;;5027828;28;20036;-48
2024/01/13 11:49:31;;;;;;;14.68;8.15;;;4.00;99.90;;;;;;5029139;28;20040;-45
2024/01/13 11:51:59;;;;;;;16.33;8.32;;;4.10;99.90;;;;;;5029922;28;20032;-46
2024/01/13 11:54:26;;;;;;;16.52;9.00;;;4.00;99.90;;;;;;5021187;28;20018;-50
2024/01/13 11:56:52;;;;;;;14.10;8.55;;;4.00;99.90;;;;;;5029865;28;20090;-45
2024/01/13 11:59:18;;;;;;;17.95;8.98;;;4.00;99.90;;;;;;5027549;28;20021;-52
2024/01/13 12:01:46;;;;;;;16.13;9.18;;;4.00;99.90;;;;;;5029654;28;20099;-56
2024/01/13 12:04:14;;;;;;;14.38;8.57;;;4.00;99.90;;;;;;5025765;28;20133;-43
2024/01/13 12:06:42;;;;;;;13.60;8.93;;;3.90;99.90;;;;;;5029213;28;20109;-47
2024/01/13 12:09:08;;;;;;;16.98;8.75;;;3.90;99.90;;;;;;5029344;28;20058;-46
2024/01/13 12:11:34;;;;;;;18.23;8.98;;;4.00;99.90;;;;;;5029853;28;20030;-46
2024/01/13 12:14:03;;;;;;;20.27;7.88;;;4.00;99.90;;;;;;5028007;28;20026;-45
2024/01/13 12:16:29;;;;;;;19.95;9.63;;;3.80;99.90;;;;;;5029407;28;20067;-47
2024/01/13 12:18:55;;;;;;;18.05;8.35;;;3.60;99.90;;;;;;5023677;28;20025;-52
2024/01/13 12:21:22;;;;;;;15.38;8.23;;;3.60;99.90;;;;;;5025316;28;20456;-44
2024/01/13 12:23:48;;;;;;;14.88;8.25;;;3.60;99.90;;;;;;5029548;28;20404;-49
2024/01/13 12:26:14;;;;;;;23.70;10.80;;;3.60;99.90;;;;;;5029323;28;20053;-48
2024/01/13 12:28:40;;;;;;;28.23;11.98;;;3.70;99.90;;;;;;5029453;28;20022;-46
2024/01/13 12:31:06;;;;;;;33.85;12.82;;;3.70;99.90;;;;;;5029693;28;20076;-44
2024/01/13 12:33:32;;;;;;;28.35;13.70;;;3.80;99.90;;;;;;5029536;28;20028;-51
2024/01/13 12:36:03;;;;;;;23.23;10.45;;;3.90;99.90;;;;;;5030052;28;20029;-54
2024/01/13 12:38:30;;;;;;;21.30;11.55;;;3.90;99.90;;;;;;5030023;28;20029;-54
2024/01/13 12:40:57;;;;;;;19.75;9.05;;;3.90;99.90;;;;;;5029531;28;20052;-52
2024/01/13 12:43:23;;;;;;;21.65;10.98;;;3.90;99.90;;;;;;5028321;28;20026;-54